sensor_id;sensor_type;location;lat;lon;timestamp;P1;durP1;ratioP1;P2;durP2;ratioP2
31978;SDS011;18502;43.574;1.276;2023-03-01T00:01:22;20.27;;;11.20;;
31978;SDS011;18502;43.574;1.276;2023-03-01T00:03:50;18.58;;;11.23;;
31978;SDS011;18502;43.574;1.276;2023-03-01T00:06:16;17.63;;;10.52;;
31978;SDS011;18502;43.574;1.276;2023-03-01T00:08:42;17.60;;;10.38;;
31978;SDS011;18502;43.574;1.276;2023-03-01T00:11:11;16.88;;;10.18;;
31978;SDS011;18502;43.574;1.276;2023-03-01T00:13:48;26.38;;;13.02;;
31978;SDS011;18502;43.574;1.276;2023-03-01T00:18:49;19.83;;;10.65;;
31978;SDS011;18502;43.574;1.276;2023-03-01T00:21:15;20.10;;;10.65;;
31978;SDS011;18502;43.574;1.276;2023-03-01T00:23:42;16.05;;;9.45;;
31978;SDS011;18502;43.574;1.276;2023-03-01T00:26:08;18.30;;;10.60;;
31978;SDS011;18502;43.574;1.276;2023-03-01T00:28:35;21.05;;;11.02;;
31978;SDS011;18502;43.574;1.276;2023-03-01T00:31:05;17.00;;;10.30;;
31978;SDS011;18502;43.574;1.276;2023-03-01T00:33:33;19.10;;;10.93;;
31978;SDS011;18502;43.574;1.276;2023-03-01T00:35:59;15.85;;;10.02;;
31978;SDS011;18502;43.574;1.276;2023-03-01T00:38:26;15.93;;;9.57;;
31978;SDS011;18502;43.574;1.276;2023-03-01T00:40:51;20.52;;;10.50;;
31978;SDS011;18502;43.574;1.276;2023-03-01T00:43:17;15.43;;;9.80;;
31978;SDS011;18502;43.574;1.276;2023-03-01T00:45:43;15.40;;;9.32;;
31978;SDS011;18502;43.574;1.276;2023-03-01T00:48:08;18.90;;;10.40;;
31978;SDS011;18502;43.574;1.276;2023-03-01T00:50:34;18.60;;;10.70;;
31978;SDS011;18502;43.574;1.276;2023-03-01T00:53:00;18.88;;;9.88;;
31978;SDS011;18502;43.574;1.276;2023-03-01T00:55:26;15.30;;;9.70;;
31978;SDS011;18502;43.574;1.276;2023-03-01T00:57:51;13.02;;;8.68;;
31978;SDS011;18502;43.574;1.276;2023-03-01T01:00:18;16.13;;;8.70;;
31978;SDS011;18502;43.574;1.276;2023-03-01T01:02:44;13.77;;;8.43;;
31978;SDS011;18502;43.574;1.276;2023-03-01T01:05:10;16.70;;;10.77;;
31978;SDS011;18502;43.574;1.276;2023-03-01T01:07:36;15.98;;;10.00;;
31978;SDS011;18502;43.574;1.276;2023-03-01T01:10:02;16.73;;;9.55;;
31978;SDS011;18502;43.574;1.276;2023-03-01T01:12:28;16.20;;;9.70;;
31978;SDS011;18502;43.574;1.276;2023-03-01T06:57:00;45.50;;;22.30;;
31978;SDS011;18502;43.574;1.276;2023-03-01T06:59:26;36.85;;;19.02;;
31978;SDS011;18502;43.574;1.276;2023-03-01T07:01:52;36.45;;;19.77;;
31978;SDS011;18502;43.574;1.276;2023-03-01T07:04:17;40.13;;;21.20;;
31978;SDS011;18502;43.574;1.276;2023-03-01T07:06:43;36.80;;;19.50;;
31978;SDS011;18502;43.574;1.276;2023-03-01T07:09:09;43.13;;;21.55;;
31978;SDS011;18502;43.574;1.276;2023-03-01T07:11:35;42.53;;;21.65;;
31978;SDS011;18502;43.574;1.276;2023-03-01T07:14:00;38.08;;;20.70;;
31978;SDS011;18502;43.574;1.276;2023-03-01T07:16:26;38.85;;;21.25;;
31978;SDS011;18502;43.574;1.276;2023-03-01T07:18:51;36.42;;;20.02;;
31978;SDS011;18502;43.574;1.276;2023-03-01T07:21:17;36.08;;;18.65;;
31978;SDS011;18502;43.574;1.276;2023-03-01T07:23:43;36.60;;;19.55;;
31978;SDS011;18502;43.574;1.276;2023-03-01T07:26:08;35.28;;;19.17;;
31978;SDS011;18502;43.574;1.276;2023-03-01T07:28:34;53.17;;;21.05;;
31978;SDS011;18502;43.574;1.276;2023-03-01T07:31:03;40.05;;;21.17;;
31978;SDS011;18502;43.574;1.276;2023-03-01T07:33:29;64.22;;;41.95;;
31978;SDS011;18502;43.574;1.276;2023-03-01T07:35:55;61.10;;;34.72;;
31978;SDS011;18502;43.574;1.276;2023-03-01T07:38:25;45.90;;;25.00;;
31978;SDS011;18502;43.574;1.276;2023-03-01T07:40:51;36.15;;;21.33;;
31978;SDS011;18502;43.574;1.276;2023-03-01T07:43:17;35.78;;;20.48;;
31978;SDS011;18502;43.574;1.276;2023-03-01T07:45:43;31.85;;;18.15;;
31978;SDS011;18502;43.574;1.276;2023-03-01T07:48:09;36.65;;;20.55;;
31978;SDS011;18502;43.574;1.276;2023-03-01T07:50:35;33.40;;;18.45;;
31978;SDS011;18502;43.574;1.276;2023-03-01T07:53:00;34.55;;;19.80;;
31978;SDS011;18502;43.574;1.276;2023-03-01T07:55:27;34.90;;;19.75;;
31978;SDS011;18502;43.574;1.276;2023-03-01T07:57:53;33.75;;;21.40;;
31978;SDS011;18502;43.574;1.276;2023-03-01T08:00:18;32.80;;;17.95;;
31978;SDS011;18502;43.574;1.276;2023-03-01T08:02:44;26.67;;;17.35;;
31978;SDS011;18502;43.574;1.276;2023-03-01T08:05:10;29.70;;;17.13;;
31978;SDS011;18502;43.574;1.276;2023-03-01T08:07:36;33.60;;;19.63;;
31978;SDS011;18502;43.574;1.276;2023-03-01T08:10:02;30.27;;;18.08;;
31978;SDS011;18502;43.574;1.276;2023-03-01T08:12:28;29.55;;;17.58;;
31978;SDS011;18502;43.574;1.276;2023-03-01T08:14:54;28.33;;;15.60;;
31978;SDS011;18502;43.574;1.276;2023-03-01T08:17:20;30.33;;;17.95;;
31978;SDS011;18502;43.574;1.276;2023-03-01T08:19:46;32.22;;;18.42;;
31978;SDS011;18502;43.574;1.276;2023-03-01T08:22:11;29.38;;;16.48;;
31978;SDS011;18502;43.574;1.276;2023-03-01T08:24:37;22.63;;;14.85;;
31978;SDS011;18502;43.574;1.276;2023-03-01T08:27:03;29.05;;;16.40;;
31978;SDS011;18502;43.574;1.276;2023-03-01T08:29:32;28.70;;;15.10;;
31978;SDS011;18502;43.574;1.276;2023-03-01T08:31:58;22.23;;;15.63;;
31978;SDS011;18502;43.574;1.276;2023-03-01T08:34:24;30.77;;;17.52;;
31978;SDS011;18502;43.574;1.276;2023-03-01T08:36:50;29.83;;;17.92;;
31978;SDS011;18502;43.574;1.276;2023-03-01T08:39:17;28.88;;;17.10;;
31978;SDS011;18502;43.574;1.276;2023-03-01T08:41:45;30.85;;;17.42;;
31978;SDS011;18502;43.574;1.276;2023-03-01T08:44:12;31.55;;;17.23;;
31978;SDS011;18502;43.574;1.276;2023-03-01T08:46:39;31.70;;;15.98;;
31978;SDS011;18502;43.574;1.276;2023-03-01T08:49:14;29.38;;;17.13;;
31978;SDS011;18502;43.574;1.276;2023-03-01T08:51:41;31.77;;;15.05;;
31978;SDS011;18502;43.574;1.276;2023-03-01T08:54:11;34.42;;;18.90;;
31978;SDS011;18502;43.574;1.276;2023-03-01T08:56:41;29.05;;;18.20;;
31978;SDS011;18502;43.574;1.276;2023-03-01T08:59:08;31.95;;;17.05;;
31978;SDS011;18502;43.574;1.276;2023-03-01T09:01:35;31.77;;;17.08;;
31978;SDS011;18502;43.574;1.276;2023-03-01T09:04:02;25.40;;;15.68;;
31978;SDS011;18502;43.574;1.276;2023-03-01T09:06:30;19.33;;;8.55;;
31978;SDS011;18502;43.574;1.276;2023-03-01T09:08:58;12.30;;;7.78;;
31978;SDS011;18502;43.574;1.276;2023-03-01T09:11:23;9.82;;;6.70;;
31978;SDS011;18502;43.574;1.276;2023-03-01T09:13:49;10.18;;;6.60;;
31978;SDS011;18502;43.574;1.276;2023-03-01T09:16:16;10.93;;;7.53;;
31978;SDS011;18502;43.574;1.276;2023-03-01T09:18:44;8.40;;;6.32;;
31978;SDS011;18502;43.574;1.276;2023-03-01T09:21:13;11.97;;;6.70;;
31978;SDS011;18502;43.574;1.276;2023-03-01T09:23:41;8.93;;;6.47;;
31978;SDS011;18502;43.574;1.276;2023-03-01T09:26:12;9.73;;;7.57;;
31978;SDS011;18502;43.574;1.276;2023-03-01T09:28:41;8.75;;;6.38;;
31978;SDS011;18502;43.574;1.276;2023-03-01T09:31:07;8.10;;;6.35;;
31978;SDS011;18502;43.574;1.276;2023-03-01T09:33:33;7.78;;;6.47;;
31978;SDS011;18502;43.574;1.276;2023-03-01T09:36:03;14.48;;;6.85;;
31978;SDS011;18502;43.574;1.276;2023-03-01T09:38:32;8.77;;;6.00;;
31978;SDS011;18502;43.574;1.276;2023-03-01T09:40:58;8.55;;;5.50;;
31978;SDS011;18502;43.574;1.276;2023-03-01T09:46:10;7.75;;;5.70;;
31978;SDS011;18502;43.574;1.276;2023-03-01T09:48:42;5.93;;;5.32;;
31978;SDS011;18502;43.574;1.276;2023-03-01T09:51:16;9.88;;;6.15;;
31978;SDS011;18502;43.574;1.276;2023-03-01T09:53:44;6.55;;;4.75;;
31978;SDS011;18502;43.574;1.276;2023-03-01T10:01:59;5.95;;;4.97;;
31978;SDS011;18502;43.574;1.276;2023-03-01T10:07:21;10.38;;;5.65;;
31978;SDS011;18502;43.574;1.276;2023-03-01T10:10:05;8.50;;;5.70;;
31978;SDS011;18502;43.574;1.276;2023-03-01T10:12:34;8.15;;;5.82;;
31978;SDS011;18502;43.574;1.276;2023-03-01T10:15:05;7.53;;;6.20;;
31978;SDS011;18502;43.574;1.276;2023-03-01T10:22:38;8.48;;;5.57;;
31978;SDS011;18502;43.574;1.276;2023-03-01T10:25:03;5.78;;;5.07;;
31978;SDS011;18502;43.574;1.276;2023-03-01T10:27:34;6.15;;;4.57;;
31978;SDS011;18502;43.574;1.276;2023-03-01T10:33:07;5.85;;;5.07;;
31978;SDS011;18502;43.574;1.276;2023-03-01T10:35:42;6.40;;;5.43;;
31978;SDS011;18502;43.574;1.276;2023-03-01T10:38:09;7.43;;;5.40;;
31978;SDS011;18502;43.574;1.276;2023-03-01T10:40:52;6.40;;;5.10;;
31978;SDS011;18502;43.574;1.276;2023-03-01T10:43:20;8.82;;;5.50;;
31978;SDS011;18502;43.574;1.276;2023-03-01T10:45:46;7.25;;;6.18;;
31978;SDS011;18502;43.574;1.276;2023-03-01T10:50:39;8.40;;;6.30;;
31978;SDS011;18502;43.574;1.276;2023-03-01T10:56:07;7.90;;;6.75;;
31978;SDS011;18502;43.574;1.276;2023-03-01T10:58:39;17.48;;;7.65;;
31978;SDS011;18502;43.574;1.276;2023-03-01T11:03:41;10.05;;;7.55;;
31978;SDS011;18502;43.574;1.276;2023-03-01T11:08:45;7.68;;;6.70;;
31978;SDS011;18502;43.574;1.276;2023-03-01T11:16:22;6.25;;;5.05;;
31978;SDS011;18502;43.574;1.276;2023-03-01T11:19:26;7.10;;;5.45;;
31978;SDS011;18502;43.574;1.276;2023-03-01T11:24:48;6.10;;;5.32;;
31978;SDS011;18502;43.574;1.276;2023-03-01T11:27:18;6.05;;;5.53;;
31978;SDS011;18502;43.574;1.276;2023-03-01T11:29:50;5.80;;;5.30;;
31978;SDS011;18502;43.574;1.276;2023-03-01T11:32:23;7.57;;;5.88;;
31978;SDS011;18502;43.574;1.276;2023-03-01T11:34:55;6.93;;;5.60;;
31978;SDS011;18502;43.574;1.276;2023-03-01T11:40:25;6.18;;;5.55;;
31978;SDS011;18502;43.574;1.276;2023-03-01T11:43:02;6.32;;;5.03;;
31978;SDS011;18502;43.574;1.276;2023-03-01T11:51:46;8.15;;;5.25;;
31978;SDS011;18502;43.574;1.276;2023-03-01T11:54:22;5.82;;;5.28;;
31978;SDS011;18502;43.574;1.276;2023-03-01T12:05:28;5.68;;;5.13;;
31978;SDS011;18502;43.574;1.276;2023-03-01T12:08:06;5.40;;;4.90;;
31978;SDS011;18502;43.574;1.276;2023-03-01T12:11:16;8.55;;;5.95;;
31978;SDS011;18502;43.574;1.276;2023-03-01T12:50:05;6.22;;;5.55;;
31978;SDS011;18502;43.574;1.276;2023-03-01T12:52:46;6.25;;;5.32;;
31978;SDS011;18502;43.574;1.276;2023-03-01T12:55:26;5.78;;;5.13;;
31978;SDS011;18502;43.574;1.276;2023-03-01T13:00:45;5.82;;;4.82;;
31978;SDS011;18502;43.574;1.276;2023-03-01T13:04:12;5.97;;;5.40;;
31978;SDS011;18502;43.574;1.276;2023-03-01T13:17:47;5.65;;;5.05;;
31978;SDS011;18502;43.574;1.276;2023-03-01T13:20:15;6.50;;;5.13;;
31978;SDS011;18502;43.574;1.276;2023-03-01T13:22:43;5.80;;;5.10;;
31978;SDS011;18502;43.574;1.276;2023-03-01T13:25:16;5.78;;;5.10;;
31978;SDS011;18502;43.574;1.276;2023-03-01T13:27:43;5.90;;;4.90;;
31978;SDS011;18502;43.574;1.276;2023-03-01T13:35:56;5.95;;;5.10;;
31978;SDS011;18502;43.574;1.276;2023-03-01T13:41:15;6.13;;;5.05;;
31978;SDS011;18502;43.574;1.276;2023-03-01T13:43:59;6.13;;;5.53;;
31978;SDS011;18502;43.574;1.276;2023-03-01T13:46:25;5.65;;;5.15;;
31978;SDS011;18502;43.574;1.276;2023-03-01T13:48:52;6.60;;;5.32;;
31978;SDS011;18502;43.574;1.276;2023-03-01T13:51:25;5.38;;;4.88;;
31978;SDS011;18502;43.574;1.276;2023-03-01T13:53:52;6.30;;;5.70;;
31978;SDS011;18502;43.574;1.276;2023-03-01T13:56:21;7.10;;;5.70;;
31978;SDS011;18502;43.574;1.276;2023-03-01T14:01:42;5.75;;;5.10;;
31978;SDS011;18502;43.574;1.276;2023-03-01T14:04:20;5.55;;;4.78;;
31978;SDS011;18502;43.574;1.276;2023-03-01T14:06:47;5.97;;;5.43;;
31978;SDS011;18502;43.574;1.276;2023-03-01T14:09:17;6.07;;;5.13;;
31978;SDS011;18502;43.574;1.276;2023-03-01T14:22:45;6.22;;;4.63;;
31978;SDS011;18502;43.574;1.276;2023-03-01T14:25:31;5.82;;;4.90;;
31978;SDS011;18502;43.574;1.276;2023-03-01T14:30:43;4.82;;;4.43;;
31978;SDS011;18502;43.574;1.276;2023-03-01T14:35:57;4.68;;;4.20;;
31978;SDS011;18502;43.574;1.276;2023-03-01T14:38:37;5.03;;;4.63;;
31978;SDS011;18502;43.574;1.276;2023-03-01T14:41:12;4.97;;;4.57;;
31978;SDS011;18502;43.574;1.276;2023-03-01T14:43:44;5.10;;;4.60;;
31978;SDS011;18502;43.574;1.276;2023-03-01T14:51:30;6.20;;;5.60;;
31978;SDS011;18502;43.574;1.276;2023-03-01T14:54:10;5.00;;;4.60;;
31978;SDS011;18502;43.574;1.276;2023-03-01T14:56:57;5.28;;;4.78;;
31978;SDS011;18502;43.574;1.276;2023-03-01T14:59:25;5.65;;;5.15;;
31978;SDS011;18502;43.574;1.276;2023-03-01T15:01:51;5.63;;;5.05;;
31978;SDS011;18502;43.574;1.276;2023-03-01T15:04:20;8.43;;;6.32;;
31978;SDS011;18502;43.574;1.276;2023-03-01T15:06:47;6.60;;;4.32;;
31978;SDS011;18502;43.574;1.276;2023-03-01T15:09:16;5.45;;;5.00;;
31978;SDS011;18502;43.574;1.276;2023-03-01T15:11:43;5.43;;;4.68;;
31978;SDS011;18502;43.574;1.276;2023-03-01T15:14:25;7.60;;;5.05;;
31978;SDS011;18502;43.574;1.276;2023-03-01T15:17:05;5.00;;;4.57;;
31978;SDS011;18502;43.574;1.276;2023-03-01T15:22:20;5.32;;;4.82;;
31978;SDS011;18502;43.574;1.276;2023-03-01T15:24:48;5.10;;;4.60;;
31978;SDS011;18502;43.574;1.276;2023-03-01T15:27:18;6.45;;;5.05;;
31978;SDS011;18502;43.574;1.276;2023-03-01T15:29:58;5.97;;;5.22;;
31978;SDS011;18502;43.574;1.276;2023-03-01T15:32:32;5.75;;;5.25;;
31978;SDS011;18502;43.574;1.276;2023-03-01T15:35:01;5.30;;;4.80;;
31978;SDS011;18502;43.574;1.276;2023-03-01T15:38:04;6.18;;;5.20;;
31978;SDS011;18502;43.574;1.276;2023-03-01T15:41:01;5.30;;;4.80;;
31978;SDS011;18502;43.574;1.276;2023-03-01T15:46:03;6.25;;;5.65;;
31978;SDS011;18502;43.574;1.276;2023-03-01T15:48:29;5.57;;;5.07;;
31978;SDS011;18502;43.574;1.276;2023-03-01T15:50:59;5.78;;;5.28;;
31978;SDS011;18502;43.574;1.276;2023-03-01T15:53:26;5.35;;;4.85;;
31978;SDS011;18502;43.574;1.276;2023-03-01T15:55:53;5.20;;;4.70;;
31978;SDS011;18502;43.574;1.276;2023-03-01T15:58:20;6.07;;;5.45;;
31978;SDS011;18502;43.574;1.276;2023-03-01T16:00:50;5.75;;;5.25;;
31978;SDS011;18502;43.574;1.276;2023-03-01T16:03:21;8.63;;;5.63;;
31978;SDS011;18502;43.574;1.276;2023-03-01T16:05:48;8.35;;;7.40;;
31978;SDS011;18502;43.574;1.276;2023-03-01T16:08:15;5.68;;;5.18;;
31978;SDS011;18502;43.574;1.276;2023-03-01T16:10:42;7.32;;;6.60;;
31978;SDS011;18502;43.574;1.276;2023-03-01T16:13:13;7.35;;;6.60;;
31978;SDS011;18502;43.574;1.276;2023-03-01T16:15:39;9.05;;;6.95;;
31978;SDS011;18502;43.574;1.276;2023-03-01T16:18:06;7.40;;;6.70;;
31978;SDS011;18502;43.574;1.276;2023-03-01T16:20:32;6.68;;;5.75;;
31978;SDS011;18502;43.574;1.276;2023-03-01T16:22:59;7.22;;;5.80;;
31978;SDS011;18502;43.574;1.276;2023-03-01T16:25:26;7.38;;;6.68;;
31978;SDS011;18502;43.574;1.276;2023-03-01T16:27:53;6.68;;;6.07;;
31978;SDS011;18502;43.574;1.276;2023-03-01T16:30:21;5.75;;;5.25;;
31978;SDS011;18502;43.574;1.276;2023-03-01T16:32:47;6.63;;;5.65;;
31978;SDS011;18502;43.574;1.276;2023-03-01T16:35:15;7.47;;;6.00;;
31978;SDS011;18502;43.574;1.276;2023-03-01T16:37:42;6.70;;;5.38;;
31978;SDS011;18502;43.574;1.276;2023-03-01T16:40:15;9.55;;;6.28;;
31978;SDS011;18502;43.574;1.276;2023-03-01T16:42:46;8.77;;;6.72;;
31978;SDS011;18502;43.574;1.276;2023-03-01T16:45:13;8.82;;;7.53;;
31978;SDS011;18502;43.574;1.276;2023-03-01T16:47:39;8.85;;;7.10;;
31978;SDS011;18502;43.574;1.276;2023-03-01T16:50:04;6.82;;;5.95;;
31978;SDS011;18502;43.574;1.276;2023-03-01T16:52:30;11.43;;;8.85;;
31978;SDS011;18502;43.574;1.276;2023-03-01T16:54:56;7.93;;;6.93;;
31978;SDS011;18502;43.574;1.276;2023-03-01T16:57:22;13.43;;;9.70;;
31978;SDS011;18502;43.574;1.276;2023-03-01T16:59:50;12.95;;;9.50;;
31978;SDS011;18502;43.574;1.276;2023-03-01T17:02:19;8.98;;;6.78;;
31978;SDS011;18502;43.574;1.276;2023-03-01T17:04:51;9.23;;;7.72;;
31978;SDS011;18502;43.574;1.276;2023-03-01T17:07:18;14.05;;;8.75;;
31978;SDS011;18502;43.574;1.276;2023-03-01T17:09:43;7.00;;;5.47;;
31978;SDS011;18502;43.574;1.276;2023-03-01T17:12:11;11.63;;;8.10;;
31978;SDS011;18502;43.574;1.276;2023-03-01T17:14:37;17.35;;;11.98;;
31978;SDS011;18502;43.574;1.276;2023-03-01T17:17:06;7.22;;;6.10;;
31978;SDS011;18502;43.574;1.276;2023-03-01T17:19:36;10.65;;;5.47;;
31978;SDS011;18502;43.574;1.276;2023-03-01T17:22:06;8.63;;;5.80;;
31978;SDS011;18502;43.574;1.276;2023-03-01T17:24:33;6.78;;;5.72;;
31978;SDS011;18502;43.574;1.276;2023-03-01T17:27:00;8.85;;;8.05;;
31978;SDS011;18502;43.574;1.276;2023-03-01T17:29:26;7.38;;;6.43;;
31978;SDS011;18502;43.574;1.276;2023-03-01T17:31:51;7.07;;;6.38;;
31978;SDS011;18502;43.574;1.276;2023-03-01T17:34:20;8.38;;;5.55;;
31978;SDS011;18502;43.574;1.276;2023-03-01T17:36:47;8.93;;;6.47;;
31978;SDS011;18502;43.574;1.276;2023-03-01T17:39:14;10.07;;;6.88;;
31978;SDS011;18502;43.574;1.276;2023-03-01T17:41:41;9.52;;;6.22;;
31978;SDS011;18502;43.574;1.276;2023-03-01T17:44:07;12.95;;;8.48;;
31978;SDS011;18502;43.574;1.276;2023-03-01T17:46:33;15.32;;;9.10;;
31978;SDS011;18502;43.574;1.276;2023-03-01T17:48:59;15.88;;;9.60;;
31978;SDS011;18502;43.574;1.276;2023-03-01T17:51:25;12.50;;;8.80;;
31978;SDS011;18502;43.574;1.276;2023-03-01T17:53:50;9.95;;;7.63;;
31978;SDS011;18502;43.574;1.276;2023-03-01T17:56:16;9.13;;;7.43;;
31978;SDS011;18502;43.574;1.276;2023-03-01T17:58:42;9.93;;;7.65;;
31978;SDS011;18502;43.574;1.276;2023-03-01T18:01:15;9.82;;;7.18;;
31978;SDS011;18502;43.574;1.276;2023-03-01T18:03:42;9.98;;;8.23;;
31978;SDS011;18502;43.574;1.276;2023-03-01T18:06:17;10.18;;;7.50;;
31978;SDS011;18502;43.574;1.276;2023-03-01T18:08:45;10.50;;;7.28;;
31978;SDS011;18502;43.574;1.276;2023-03-01T18:11:12;9.27;;;7.05;;
31978;SDS011;18502;43.574;1.276;2023-03-01T18:13:39;11.95;;;7.20;;
31978;SDS011;18502;43.574;1.276;2023-03-01T18:16:09;11.93;;;8.68;;
31978;SDS011;18502;43.574;1.276;2023-03-01T18:18:37;10.10;;;7.28;;
31978;SDS011;18502;43.574;1.276;2023-03-01T18:21:04;12.70;;;8.30;;
31978;SDS011;18502;43.574;1.276;2023-03-01T18:23:31;11.07;;;8.05;;
31978;SDS011;18502;43.574;1.276;2023-03-01T18:25:58;13.50;;;8.68;;
31978;SDS011;18502;43.574;1.276;2023-03-01T18:28:26;12.68;;;9.80;;
31978;SDS011;18502;43.574;1.276;2023-03-01T18:30:59;15.82;;;9.65;;
31978;SDS011;18502;43.574;1.276;2023-03-01T18:33:28;17.35;;;11.10;;
31978;SDS011;18502;43.574;1.276;2023-03-01T18:35:54;17.75;;;12.25;;
31978;SDS011;18502;43.574;1.276;2023-03-01T18:38:20;15.70;;;10.15;;
31978;SDS011;18502;43.574;1.276;2023-03-01T18:40:46;19.23;;;13.48;;
31978;SDS011;18502;43.574;1.276;2023-03-01T18:43:12;19.08;;;10.57;;
31978;SDS011;18502;43.574;1.276;2023-03-01T18:45:38;19.17;;;11.20;;
31978;SDS011;18502;43.574;1.276;2023-03-01T18:48:03;16.65;;;10.32;;
31978;SDS011;18502;43.574;1.276;2023-03-01T18:50:29;15.88;;;10.23;;
31978;SDS011;18502;43.574;1.276;2023-03-01T18:52:56;16.63;;;9.75;;
31978;SDS011;18502;43.574;1.276;2023-03-01T18:55:22;17.83;;;10.00;;
31978;SDS011;18502;43.574;1.276;2023-03-01T18:57:48;20.33;;;11.35;;
31978;SDS011;18502;43.574;1.276;2023-03-01T19:00:14;17.48;;;10.80;;
31978;SDS011;18502;43.574;1.276;2023-03-01T19:02:40;17.00;;;10.30;;
31978;SDS011;18502;43.574;1.276;2023-03-01T19:05:05;19.70;;;10.90;;
31978;SDS011;18502;43.574;1.276;2023-03-01T19:07:32;23.27;;;12.65;;
31978;SDS011;18502;43.574;1.276;2023-03-01T19:09:58;20.95;;;13.60;;
31978;SDS011;18502;43.574;1.276;2023-03-01T19:12:23;22.42;;;12.35;;
31978;SDS011;18502;43.574;1.276;2023-03-01T19:14:52;24.95;;;14.93;;
31978;SDS011;18502;43.574;1.276;2023-03-01T19:17:17;22.42;;;15.13;;
31978;SDS011;18502;43.574;1.276;2023-03-01T19:19:48;23.92;;;14.20;;
31978;SDS011;18502;43.574;1.276;2023-03-01T19:22:15;21.00;;;12.40;;
31978;SDS011;18502;43.574;1.276;2023-03-01T19:24:40;20.80;;;12.90;;
31978;SDS011;18502;43.574;1.276;2023-03-01T19:27:06;21.00;;;12.75;;
31978;SDS011;18502;43.574;1.276;2023-03-01T19:29:32;21.73;;;13.80;;
31978;SDS011;18502;43.574;1.276;2023-03-01T19:31:59;22.27;;;14.73;;
31978;SDS011;18502;43.574;1.276;2023-03-01T19:34:24;21.00;;;13.25;;
31978;SDS011;18502;43.574;1.276;2023-03-01T19:36:50;20.70;;;13.18;;
31978;SDS011;18502;43.574;1.276;2023-03-01T19:39:16;21.33;;;13.50;;
31978;SDS011;18502;43.574;1.276;2023-03-01T19:41:41;21.38;;;13.10;;
31978;SDS011;18502;43.574;1.276;2023-03-01T19:44:08;21.70;;;14.57;;
31978;SDS011;18502;43.574;1.276;2023-03-01T19:46:35;35.58;;;20.33;;
31978;SDS011;18502;43.574;1.276;2023-03-01T19:49:00;59.92;;;32.90;;
31978;SDS011;18502;43.574;1.276;2023-03-01T19:51:27;46.35;;;26.85;;
31978;SDS011;18502;43.574;1.276;2023-03-01T19:53:53;70.63;;;39.55;;
31978;SDS011;18502;43.574;1.276;2023-03-01T19:56:19;85.30;;;44.95;;
31978;SDS011;18502;43.574;1.276;2023-03-01T19:58:44;68.10;;;41.22;;
31978;SDS011;18502;43.574;1.276;2023-03-01T20:01:17;237.70;;;70.50;;
31978;SDS011;18502;43.574;1.276;2023-03-01T20:03:45;258.98;;;74.93;;
31978;SDS011;18502;43.574;1.276;2023-03-01T20:06:13;385.33;;;128.18;;
31978;SDS011;18502;43.574;1.276;2023-03-01T20:08:40;56.97;;;27.27;;
31978;SDS011;18502;43.574;1.276;2023-03-01T20:11:08;83.65;;;33.42;;
31978;SDS011;18502;43.574;1.276;2023-03-01T20:13:34;69.60;;;31.27;;
31978;SDS011;18502;43.574;1.276;2023-03-01T20:16:00;35.88;;;20.63;;
31978;SDS011;18502;43.574;1.276;2023-03-01T20:18:27;44.53;;;26.08;;
31978;SDS011;18502;43.574;1.276;2023-03-01T20:20:53;32.42;;;20.20;;
31978;SDS011;18502;43.574;1.276;2023-03-01T20:23:19;20.42;;;13.38;;
31978;SDS011;18502;43.574;1.276;2023-03-01T20:25:45;20.52;;;11.38;;
31978;SDS011;18502;43.574;1.276;2023-03-01T20:28:15;18.08;;;11.27;;
31978;SDS011;18502;43.574;1.276;2023-03-01T20:30:42;21.92;;;13.25;;
31978;SDS011;18502;43.574;1.276;2023-03-01T20:33:08;20.55;;;13.23;;
31978;SDS011;18502;43.574;1.276;2023-03-01T20:35:34;14.60;;;10.32;;
31978;SDS011;18502;43.574;1.276;2023-03-01T20:38:03;16.58;;;11.02;;
31978;SDS011;18502;43.574;1.276;2023-03-01T20:40:29;18.02;;;11.40;;
31978;SDS011;18502;43.574;1.276;2023-03-01T20:42:58;16.55;;;11.57;;
31978;SDS011;18502;43.574;1.276;2023-03-01T20:45:24;20.88;;;12.98;;
31978;SDS011;18502;43.574;1.276;2023-03-01T20:47:50;23.55;;;13.93;;
31978;SDS011;18502;43.574;1.276;2023-03-01T20:50:16;19.80;;;12.63;;
31978;SDS011;18502;43.574;1.276;2023-03-01T20:52:43;15.50;;;10.32;;
31978;SDS011;18502;43.574;1.276;2023-03-01T20:55:09;17.80;;;11.15;;
31978;SDS011;18502;43.574;1.276;2023-03-01T20:57:35;16.33;;;9.90;;
31978;SDS011;18502;43.574;1.276;2023-03-01T21:00:02;16.05;;;9.68;;
31978;SDS011;18502;43.574;1.276;2023-03-01T21:02:29;15.13;;;9.93;;
31978;SDS011;18502;43.574;1.276;2023-03-01T21:04:54;14.35;;;9.82;;
31978;SDS011;18502;43.574;1.276;2023-03-01T21:07:20;14.93;;;10.35;;
31978;SDS011;18502;43.574;1.276;2023-03-01T21:09:45;15.38;;;10.25;;
31978;SDS011;18502;43.574;1.276;2023-03-01T21:12:11;18.77;;;11.80;;
31978;SDS011;18502;43.574;1.276;2023-03-01T21:14:37;15.80;;;9.98;;
31978;SDS011;18502;43.574;1.276;2023-03-01T21:17:07;16.53;;;10.17;;
31978;SDS011;18502;43.574;1.276;2023-03-01T21:19:43;18.20;;;11.27;;
31978;SDS011;18502;43.574;1.276;2023-03-01T21:22:10;19.65;;;11.30;;
31978;SDS011;18502;43.574;1.276;2023-03-01T21:24:37;23.10;;;12.95;;
31978;SDS011;18502;43.574;1.276;2023-03-01T21:27:03;22.08;;;12.88;;
31978;SDS011;18502;43.574;1.276;2023-03-01T21:29:31;20.10;;;12.35;;
31978;SDS011;18502;43.574;1.276;2023-03-01T21:31:58;17.63;;;10.45;;
31978;SDS011;18502;43.574;1.276;2023-03-01T21:34:23;16.05;;;10.02;;
31978;SDS011;18502;43.574;1.276;2023-03-01T21:36:49;19.35;;;11.40;;
31978;SDS011;18502;43.574;1.276;2023-03-01T21:39:15;15.95;;;11.50;;
31978;SDS011;18502;43.574;1.276;2023-03-01T21:41:40;17.85;;;11.02;;
31978;SDS011;18502;43.574;1.276;2023-03-01T21:44:06;16.65;;;10.27;;
31978;SDS011;18502;43.574;1.276;2023-03-01T21:46:33;18.30;;;10.23;;
31978;SDS011;18502;43.574;1.276;2023-03-01T21:49:01;16.98;;;10.55;;
31978;SDS011;18502;43.574;1.276;2023-03-01T21:51:28;16.20;;;10.43;;
31978;SDS011;18502;43.574;1.276;2023-03-01T21:53:56;16.33;;;10.68;;
31978;SDS011;18502;43.574;1.276;2023-03-01T21:56:26;12.95;;;9.00;;
31978;SDS011;18502;43.574;1.276;2023-03-01T21:58:53;18.98;;;10.10;;
31978;SDS011;18502;43.574;1.276;2023-03-01T22:01:22;18.40;;;10.48;;
31978;SDS011;18502;43.574;1.276;2023-03-01T22:03:49;17.38;;;11.00;;
31978;SDS011;18502;43.574;1.276;2023-03-01T22:08:52;17.00;;;11.10;;
31978;SDS011;18502;43.574;1.276;2023-03-01T22:11:23;14.35;;;10.48;;
31978;SDS011;18502;43.574;1.276;2023-03-01T22:13:51;16.58;;;10.05;;
31978;SDS011;18502;43.574;1.276;2023-03-01T22:16:20;15.50;;;9.57;;
31978;SDS011;18502;43.574;1.276;2023-03-01T22:18:48;13.95;;;10.23;;
31978;SDS011;18502;43.574;1.276;2023-03-01T22:21:14;15.20;;;8.75;;
31978;SDS011;18502;43.574;1.276;2023-03-01T22:23:41;13.90;;;9.27;;
31978;SDS011;18502;43.574;1.276;2023-03-01T22:26:07;13.52;;;8.85;;
31978;SDS011;18502;43.574;1.276;2023-03-01T22:28:43;13.10;;;8.60;;
31978;SDS011;18502;43.574;1.276;2023-03-01T22:31:09;14.57;;;8.75;;
31978;SDS011;18502;43.574;1.276;2023-03-01T22:33:34;9.27;;;6.55;;
31978;SDS011;18502;43.574;1.276;2023-03-01T22:36:00;12.82;;;8.10;;
31978;SDS011;18502;43.574;1.276;2023-03-01T22:38:26;16.38;;;8.57;;
31978;SDS011;18502;43.574;1.276;2023-03-01T22:40:55;9.77;;;6.68;;
31978;SDS011;18502;43.574;1.276;2023-03-01T22:43:22;13.88;;;9.02;;
31978;SDS011;18502;43.574;1.276;2023-03-01T22:45:47;14.10;;;9.00;;
31978;SDS011;18502;43.574;1.276;2023-03-01T22:48:13;11.63;;;8.52;;
31978;SDS011;18502;43.574;1.276;2023-03-01T22:50:42;13.45;;;8.98;;
31978;SDS011;18502;43.574;1.276;2023-03-01T22:53:09;13.65;;;8.52;;